sensor_id;sensor_type;location;lat;lon;timestamp;P1;durP1;ratioP1;P2;durP2;ratioP2
31112;SDS011;17763;48.730;9.136;2023-02-15T00:00:39;36.20;;;22.65;;
31112;SDS011;17763;48.730;9.136;2023-02-15T00:03:07;37.33;;;23.52;;
31112;SDS011;17763;48.730;9.136;2023-02-15T00:05:33;38.05;;;24.00;;
31112;SDS011;17763;48.730;9.136;2023-02-15T00:07:59;37.67;;;24.27;;
31112;SDS011;17763;48.730;9.136;2023-02-15T00:10:24;34.92;;;24.00;;
31112;SDS011;17763;48.730;9.136;2023-02-15T00:12:50;37.47;;;23.45;;
31112;SDS011;17763;48.730;9.136;2023-02-15T00:15:15;36.30;;;24.38;;
31112;SDS011;17763;48.730;9.136;2023-02-15T00:17:41;36.63;;;23.63;;
31112;SDS011;17763;48.730;9.136;2023-02-15T00:20:07;36.92;;;23.23;;
31112;SDS011;17763;48.730;9.136;2023-02-15T00:22:33;36.03;;;23.05;;
31112;SDS011;17763;48.730;9.136;2023-02-15T00:24:58;38.22;;;21.42;;
31112;SDS011;17763;48.730;9.136;2023-02-15T00:27:24;34.90;;;22.92;;
31112;SDS011;17763;48.730;9.136;2023-02-15T00:29:49;31.98;;;20.77;;
31112;SDS011;17763;48.730;9.136;2023-02-15T00:32:15;32.97;;;21.33;;
31112;SDS011;17763;48.730;9.136;2023-02-15T00:34:41;30.10;;;21.60;;
31112;SDS011;17763;48.730;9.136;2023-02-15T00:37:06;34.83;;;22.58;;
31112;SDS011;17763;48.730;9.136;2023-02-15T00:39:34;37.58;;;24.02;;
31112;SDS011;17763;48.730;9.136;2023-02-15T00:42:00;34.55;;;23.02;;
31112;SDS011;17763;48.730;9.136;2023-02-15T00:44:25;37.53;;;25.23;;
31112;SDS011;17763;48.730;9.136;2023-02-15T00:46:53;38.83;;;24.20;;
31112;SDS011;17763;48.730;9.136;2023-02-15T00:49:19;37.75;;;23.90;;
31112;SDS011;17763;48.730;9.136;2023-02-15T00:51:45;33.13;;;22.60;;
31112;SDS011;17763;48.730;9.136;2023-02-15T00:54:10;36.33;;;24.45;;
31112;SDS011;17763;48.730;9.136;2023-02-15T00:56:36;32.85;;;22.40;;
31112;SDS011;17763;48.730;9.136;2023-02-15T00:59:01;34.20;;;23.15;;
31112;SDS011;17763;48.730;9.136;2023-02-15T01:01:32;33.97;;;22.88;;
31112;SDS011;17763;48.730;9.136;2023-02-15T01:03:57;36.67;;;21.88;;
31112;SDS011;17763;48.730;9.136;2023-02-15T01:06:23;36.60;;;22.23;;
31112;SDS011;17763;48.730;9.136;2023-02-15T01:08:48;35.13;;;22.75;;
31112;SDS011;17763;48.730;9.136;2023-02-15T01:11:18;30.75;;;21.23;;
31112;SDS011;17763;48.730;9.136;2023-02-15T01:13:53;31.85;;;20.83;;
31112;SDS011;17763;48.730;9.136;2023-02-15T01:16:21;33.60;;;20.95;;
31112;SDS011;17763;48.730;9.136;2023-02-15T01:18:48;30.50;;;21.13;;
31112;SDS011;17763;48.730;9.136;2023-02-15T01:21:15;30.45;;;19.83;;
31112;SDS011;17763;48.730;9.136;2023-02-15T01:23:42;32.88;;;20.83;;
31112;SDS011;17763;48.730;9.136;2023-02-15T01:26:08;33.75;;;20.83;;
31112;SDS011;17763;48.730;9.136;2023-02-15T01:28:34;30.58;;;20.23;;
31112;SDS011;17763;48.730;9.136;2023-02-15T01:31:04;31.58;;;20.63;;
31112;SDS011;17763;48.730;9.136;2023-02-15T01:33:33;34.08;;;21.73;;
31112;SDS011;17763;48.730;9.136;2023-02-15T01:36:00;30.92;;;20.85;;
31112;SDS011;17763;48.730;9.136;2023-02-15T01:38:28;32.33;;;20.98;;
31112;SDS011;17763;48.730;9.136;2023-02-15T01:40:54;33.08;;;20.42;;
31112;SDS011;17763;48.730;9.136;2023-02-15T01:43:45;29.55;;;19.27;;
31112;SDS011;17763;48.730;9.136;2023-02-15T01:46:13;32.25;;;20.63;;
31112;SDS011;17763;48.730;9.136;2023-02-15T01:48:44;32.90;;;21.52;;
31112;SDS011;17763;48.730;9.136;2023-02-15T01:51:17;31.55;;;19.67;;
31112;SDS011;17763;48.730;9.136;2023-02-15T01:56:54;33.95;;;21.77;;
31112;SDS011;17763;48.730;9.136;2023-02-15T02:01:51;30.75;;;20.55;;
31112;SDS011;17763;48.730;9.136;2023-02-15T02:05:03;33.83;;;21.20;;
31112;SDS011;17763;48.730;9.136;2023-02-15T02:07:13;29.98;;;20.20;;
31112;SDS011;17763;48.730;9.136;2023-02-15T02:09:42;32.28;;;21.02;;
31112;SDS011;17763;48.730;9.136;2023-02-15T02:12:09;34.85;;;22.05;;
31112;SDS011;17763;48.730;9.136;2023-02-15T02:14:35;34.60;;;21.50;;
31112;SDS011;17763;48.730;9.136;2023-02-15T02:27:33;34.33;;;21.65;;
31112;SDS011;17763;48.730;9.136;2023-02-15T02:36:06;31.58;;;20.95;;
31112;SDS011;17763;48.730;9.136;2023-02-15T02:44:24;30.77;;;20.75;;
31112;SDS011;17763;48.730;9.136;2023-02-15T02:49:38;33.80;;;19.75;;
31112;SDS011;17763;48.730;9.136;2023-02-15T02:52:31;33.20;;;20.67;;
31112;SDS011;17763;48.730;9.136;2023-02-15T02:55:00;37.63;;;22.73;;
31112;SDS011;17763;48.730;9.136;2023-02-15T02:57:52;28.63;;;19.80;;
31112;SDS011;17763;48.730;9.136;2023-02-15T03:00:21;28.83;;;20.17;;
31112;SDS011;17763;48.730;9.136;2023-02-15T03:02:53;29.40;;;20.27;;
31112;SDS011;17763;48.730;9.136;2023-02-15T03:05:24;31.15;;;21.58;;
31112;SDS011;17763;48.730;9.136;2023-02-15T03:07:52;32.58;;;21.60;;
31112;SDS011;17763;48.730;9.136;2023-02-15T03:10:22;31.63;;;21.63;;
31112;SDS011;17763;48.730;9.136;2023-02-15T03:12:49;27.60;;;19.27;;
31112;SDS011;17763;48.730;9.136;2023-02-15T03:15:21;34.15;;;20.83;;
31112;SDS011;17763;48.730;9.136;2023-02-15T03:17:57;30.92;;;19.40;;
31112;SDS011;17763;48.730;9.136;2023-02-15T03:20:31;31.25;;;21.15;;
31112;SDS011;17763;48.730;9.136;2023-02-15T03:23:02;30.05;;;19.55;;
31112;SDS011;17763;48.730;9.136;2023-02-15T03:25:37;30.48;;;20.58;;
31112;SDS011;17763;48.730;9.136;2023-02-15T03:28:09;35.50;;;22.20;;
31112;SDS011;17763;48.730;9.136;2023-02-15T03:30:38;27.65;;;18.70;;
31112;SDS011;17763;48.730;9.136;2023-02-15T03:33:07;27.85;;;19.13;;
31112;SDS011;17763;48.730;9.136;2023-02-15T03:35:53;32.92;;;20.33;;
31112;SDS011;17763;48.730;9.136;2023-02-15T03:38:28;30.92;;;20.83;;
31112;SDS011;17763;48.730;9.136;2023-02-15T03:41:01;30.23;;;19.52;;
31112;SDS011;17763;48.730;9.136;2023-02-15T03:49:39;32.60;;;20.52;;
31112;SDS011;17763;48.730;9.136;2023-02-15T03:52:13;34.40;;;20.88;;
31112;SDS011;17763;48.730;9.136;2023-02-15T03:54:41;39.63;;;22.88;;
31112;SDS011;17763;48.730;9.136;2023-02-15T03:57:21;37.05;;;22.15;;
31112;SDS011;17763;48.730;9.136;2023-02-15T04:00:22;41.60;;;22.27;;
31112;SDS011;17763;48.730;9.136;2023-02-15T04:05:51;44.92;;;24.17;;
31112;SDS011;17763;48.730;9.136;2023-02-15T04:08:17;42.63;;;22.00;;
31112;SDS011;17763;48.730;9.136;2023-02-15T04:10:42;44.45;;;24.38;;
31112;SDS011;17763;48.730;9.136;2023-02-15T04:13:18;43.53;;;24.40;;
31112;SDS011;17763;48.730;9.136;2023-02-15T04:15:44;43.70;;;23.98;;
31112;SDS011;17763;48.730;9.136;2023-02-15T04:18:28;39.58;;;22.98;;
31112;SDS011;17763;48.730;9.136;2023-02-15T04:21:13;42.90;;;23.48;;
31112;SDS011;17763;48.730;9.136;2023-02-15T04:23:57;47.90;;;24.67;;
31112;SDS011;17763;48.730;9.136;2023-02-15T04:26:42;40.88;;;23.63;;
31112;SDS011;17763;48.730;9.136;2023-02-15T04:29:07;41.75;;;22.70;;
31112;SDS011;17763;48.730;9.136;2023-02-15T04:31:33;44.30;;;23.38;;
31112;SDS011;17763;48.730;9.136;2023-02-15T04:33:59;44.53;;;23.25;;
31112;SDS011;17763;48.730;9.136;2023-02-15T04:36:27;39.78;;;23.00;;
31112;SDS011;17763;48.730;9.136;2023-02-15T04:38:52;33.97;;;21.40;;
31112;SDS011;17763;48.730;9.136;2023-02-15T04:41:18;32.20;;;19.80;;
31112;SDS011;17763;48.730;9.136;2023-02-15T04:43:43;32.83;;;21.70;;
31112;SDS011;17763;48.730;9.136;2023-02-15T04:46:09;30.90;;;20.15;;
31112;SDS011;17763;48.730;9.136;2023-02-15T04:48:37;32.70;;;20.92;;
31112;SDS011;17763;48.730;9.136;2023-02-15T04:51:06;30.90;;;19.30;;
31112;SDS011;17763;48.730;9.136;2023-02-15T04:53:33;31.35;;;20.90;;
31112;SDS011;17763;48.730;9.136;2023-02-15T04:55:59;32.90;;;21.55;;
31112;SDS011;17763;48.730;9.136;2023-02-15T04:58:25;37.83;;;21.85;;
31112;SDS011;17763;48.730;9.136;2023-02-15T05:00:55;39.30;;;22.35;;
31112;SDS011;17763;48.730;9.136;2023-02-15T05:03:21;38.20;;;21.38;;
31112;SDS011;17763;48.730;9.136;2023-02-15T05:05:47;41.15;;;22.30;;
31112;SDS011;17763;48.730;9.136;2023-02-15T05:08:15;36.75;;;23.23;;
31112;SDS011;17763;48.730;9.136;2023-02-15T05:10:41;39.38;;;24.25;;
31112;SDS011;17763;48.730;9.136;2023-02-15T05:13:07;40.50;;;24.20;;
31112;SDS011;17763;48.730;9.136;2023-02-15T05:15:32;38.58;;;23.75;;
31112;SDS011;17763;48.730;9.136;2023-02-15T05:17:58;46.60;;;23.08;;
31112;SDS011;17763;48.730;9.136;2023-02-15T05:20:24;34.92;;;22.13;;
31112;SDS011;17763;48.730;9.136;2023-02-15T05:22:53;34.72;;;20.25;;
31112;SDS011;17763;48.730;9.136;2023-02-15T05:25:19;35.00;;;22.63;;
31112;SDS011;17763;48.730;9.136;2023-02-15T05:28:03;31.42;;;20.45;;
31112;SDS011;17763;48.730;9.136;2023-02-15T05:30:47;26.95;;;18.20;;
31112;SDS011;17763;48.730;9.136;2023-02-15T05:33:17;34.30;;;21.20;;
31112;SDS011;17763;48.730;9.136;2023-02-15T05:35:45;35.47;;;21.25;;
31112;SDS011;17763;48.730;9.136;2023-02-15T05:38:10;36.03;;;21.85;;
31112;SDS011;17763;48.730;9.136;2023-02-15T05:40:36;34.47;;;21.38;;
31112;SDS011;17763;48.730;9.136;2023-02-15T05:43:02;36.10;;;21.90;;
31112;SDS011;17763;48.730;9.136;2023-02-15T05:45:27;34.28;;;22.50;;
31112;SDS011;17763;48.730;9.136;2023-02-15T05:47:55;30.48;;;20.20;;
31112;SDS011;17763;48.730;9.136;2023-02-15T05:50:23;33.78;;;21.20;;
31112;SDS011;17763;48.730;9.136;2023-02-15T05:52:52;32.75;;;20.60;;
31112;SDS011;17763;48.730;9.136;2023-02-15T05:55:20;34.38;;;21.13;;
31112;SDS011;17763;48.730;9.136;2023-02-15T05:57:45;33.08;;;21.42;;
31112;SDS011;17763;48.730;9.136;2023-02-15T06:00:12;33.55;;;21.13;;
31112;SDS011;17763;48.730;9.136;2023-02-15T06:02:39;30.35;;;21.10;;
31112;SDS011;17763;48.730;9.136;2023-02-15T06:05:05;30.45;;;21.17;;
31112;SDS011;17763;48.730;9.136;2023-02-15T06:07:31;36.17;;;21.50;;
31112;SDS011;17763;48.730;9.136;2023-02-15T06:10:00;32.33;;;21.63;;
31112;SDS011;17763;48.730;9.136;2023-02-15T06:12:25;32.20;;;21.08;;
31112;SDS011;17763;48.730;9.136;2023-02-15T06:14:58;31.15;;;22.08;;
31112;SDS011;17763;48.730;9.136;2023-02-15T06:17:26;34.17;;;21.97;;
31112;SDS011;17763;48.730;9.136;2023-02-15T06:19:54;32.05;;;20.52;;
31112;SDS011;17763;48.730;9.136;2023-02-15T06:22:19;34.83;;;21.48;;
31112;SDS011;17763;48.730;9.136;2023-02-15T06:24:45;31.77;;;22.63;;
31112;SDS011;17763;48.730;9.136;2023-02-15T06:27:11;32.38;;;23.10;;
31112;SDS011;17763;48.730;9.136;2023-02-15T06:29:37;29.70;;;19.70;;
31112;SDS011;17763;48.730;9.136;2023-02-15T06:32:03;33.47;;;21.67;;
31112;SDS011;17763;48.730;9.136;2023-02-15T06:34:29;32.03;;;20.73;;
31112;SDS011;17763;48.730;9.136;2023-02-15T06:36:55;31.30;;;21.13;;
31112;SDS011;17763;48.730;9.136;2023-02-15T06:39:20;31.48;;;21.73;;
31112;SDS011;17763;48.730;9.136;2023-02-15T06:41:48;34.78;;;20.45;;
31112;SDS011;17763;48.730;9.136;2023-02-15T06:44:16;34.00;;;22.25;;
31112;SDS011;17763;48.730;9.136;2023-02-15T06:46:44;30.87;;;21.43;;
31112;SDS011;17763;48.730;9.136;2023-02-15T06:49:10;31.70;;;21.95;;
31112;SDS011;17763;48.730;9.136;2023-02-15T06:51:35;32.55;;;21.92;;
31112;SDS011;17763;48.730;9.136;2023-02-15T06:54:01;34.47;;;23.38;;
31112;SDS011;17763;48.730;9.136;2023-02-15T06:56:27;34.00;;;23.40;;
31112;SDS011;17763;48.730;9.136;2023-02-15T06:58:55;35.20;;;23.38;;
31112;SDS011;17763;48.730;9.136;2023-02-15T07:01:20;34.60;;;23.38;;
31112;SDS011;17763;48.730;9.136;2023-02-15T07:03:46;38.80;;;24.27;;
31112;SDS011;17763;48.730;9.136;2023-02-15T07:06:12;33.08;;;21.75;;
31112;SDS011;17763;48.730;9.136;2023-02-15T07:08:40;35.92;;;22.52;;
31112;SDS011;17763;48.730;9.136;2023-02-15T07:11:06;34.53;;;22.17;;
31112;SDS011;17763;48.730;9.136;2023-02-15T07:13:58;29.85;;;21.05;;
31112;SDS011;17763;48.730;9.136;2023-02-15T07:16:23;33.00;;;21.88;;
31112;SDS011;17763;48.730;9.136;2023-02-15T07:18:49;36.38;;;22.27;;
31112;SDS011;17763;48.730;9.136;2023-02-15T07:21:14;32.45;;;21.88;;
31112;SDS011;17763;48.730;9.136;2023-02-15T07:23:40;33.20;;;23.05;;
31112;SDS011;17763;48.730;9.136;2023-02-15T07:26:06;36.65;;;22.90;;
31112;SDS011;17763;48.730;9.136;2023-02-15T07:28:32;32.60;;;22.60;;
31112;SDS011;17763;48.730;9.136;2023-02-15T07:31:03;33.08;;;22.55;;
31112;SDS011;17763;48.730;9.136;2023-02-15T07:33:32;32.65;;;21.80;;
31112;SDS011;17763;48.730;9.136;2023-02-15T07:36:04;31.02;;;20.45;;
31112;SDS011;17763;48.730;9.136;2023-02-15T07:38:37;30.95;;;20.90;;
31112;SDS011;17763;48.730;9.136;2023-02-15T07:41:05;34.10;;;23.25;;
31112;SDS011;17763;48.730;9.136;2023-02-15T07:43:33;33.50;;;21.55;;
31112;SDS011;17763;48.730;9.136;2023-02-15T07:46:00;33.90;;;22.00;;
31112;SDS011;17763;48.730;9.136;2023-02-15T07:48:27;32.05;;;22.25;;
31112;SDS011;17763;48.730;9.136;2023-02-15T07:51:00;36.78;;;25.00;;
31112;SDS011;17763;48.730;9.136;2023-02-15T07:53:26;34.42;;;22.75;;
31112;SDS011;17763;48.730;9.136;2023-02-15T07:55:53;42.33;;;23.98;;
31112;SDS011;17763;48.730;9.136;2023-02-15T07:58:19;34.60;;;22.83;;
31112;SDS011;17763;48.730;9.136;2023-02-15T08:00:46;35.85;;;24.73;;
31112;SDS011;17763;48.730;9.136;2023-02-15T08:03:25;34.95;;;23.00;;
31112;SDS011;17763;48.730;9.136;2023-02-15T08:05:58;35.15;;;24.52;;
31112;SDS011;17763;48.730;9.136;2023-02-15T08:08:25;40.40;;;26.23;;
31112;SDS011;17763;48.730;9.136;2023-02-15T08:13:49;39.47;;;24.88;;
31112;SDS011;17763;48.730;9.136;2023-02-15T08:16:25;36.30;;;24.35;;
31112;SDS011;17763;48.730;9.136;2023-02-15T08:18:53;38.58;;;24.25;;
31112;SDS011;17763;48.730;9.136;2023-02-15T08:21:20;32.97;;;22.23;;
31112;SDS011;17763;48.730;9.136;2023-02-15T08:23:46;35.83;;;23.73;;
31112;SDS011;17763;48.730;9.136;2023-02-15T08:26:12;31.77;;;21.73;;
31112;SDS011;17763;48.730;9.136;2023-02-15T08:28:38;29.92;;;21.77;;
31112;SDS011;17763;48.730;9.136;2023-02-15T08:31:08;36.08;;;23.52;;
31112;SDS011;17763;48.730;9.136;2023-02-15T08:33:35;35.30;;;23.83;;
31112;SDS011;17763;48.730;9.136;2023-02-15T08:36:06;33.70;;;24.27;;
31112;SDS011;17763;48.730;9.136;2023-02-15T08:38:36;30.95;;;22.65;;
31112;SDS011;17763;48.730;9.136;2023-02-15T08:41:11;34.53;;;23.15;;
31112;SDS011;17763;48.730;9.136;2023-02-15T08:43:41;36.00;;;24.23;;
31112;SDS011;17763;48.730;9.136;2023-02-15T08:46:07;35.80;;;24.65;;
31112;SDS011;17763;48.730;9.136;2023-02-15T08:48:34;33.55;;;24.17;;
31112;SDS011;17763;48.730;9.136;2023-02-15T08:51:10;29.35;;;21.95;;
31112;SDS011;17763;48.730;9.136;2023-02-15T08:53:41;35.78;;;24.10;;
31112;SDS011;17763;48.730;9.136;2023-02-15T08:56:09;34.80;;;21.95;;
31112;SDS011;17763;48.730;9.136;2023-02-15T08:58:38;34.65;;;23.63;;
31112;SDS011;17763;48.730;9.136;2023-02-15T09:01:11;32.42;;;22.35;;
31112;SDS011;17763;48.730;9.136;2023-02-15T09:03:45;35.40;;;22.50;;
31112;SDS011;17763;48.730;9.136;2023-02-15T09:06:14;31.35;;;21.42;;
31112;SDS011;17763;48.730;9.136;2023-02-15T09:08:41;31.77;;;21.08;;
31112;SDS011;17763;48.730;9.136;2023-02-15T09:11:08;31.13;;;21.13;;
31112;SDS011;17763;48.730;9.136;2023-02-15T09:13:36;33.22;;;22.63;;
31112;SDS011;17763;48.730;9.136;2023-02-15T09:16:03;29.85;;;20.58;;
31112;SDS011;17763;48.730;9.136;2023-02-15T09:18:31;32.13;;;20.83;;
31112;SDS011;17763;48.730;9.136;2023-02-15T09:23:35;34.30;;;20.88;;
31112;SDS011;17763;48.730;9.136;2023-02-15T09:26:05;34.67;;;20.65;;
31112;SDS011;17763;48.730;9.136;2023-02-15T09:28:33;28.80;;;20.15;;
31112;SDS011;17763;48.730;9.136;2023-02-15T09:31:16;33.22;;;20.48;;
31112;SDS011;17763;48.730;9.136;2023-02-15T09:33:46;33.33;;;21.67;;
31112;SDS011;17763;48.730;9.136;2023-02-15T09:36:17;35.25;;;21.63;;
31112;SDS011;17763;48.730;9.136;2023-02-15T09:38:54;39.00;;;22.63;;
31112;SDS011;17763;48.730;9.136;2023-02-15T10:00:46;27.53;;;18.07;;
31112;SDS011;17763;48.730;9.136;2023-02-15T10:03:31;30.48;;;19.42;;
31112;SDS011;17763;48.730;9.136;2023-02-15T10:06:13;29.15;;;20.17;;
31112;SDS011;17763;48.730;9.136;2023-02-15T10:14:36;27.70;;;18.58;;
31112;SDS011;17763;48.730;9.136;2023-02-15T10:17:21;35.13;;;21.05;;
31112;SDS011;17763;48.730;9.136;2023-02-15T10:28:20;25.38;;;18.30;;
31112;SDS011;17763;48.730;9.136;2023-02-15T10:30:52;30.40;;;19.13;;
31112;SDS011;17763;48.730;9.136;2023-02-15T10:38:48;30.25;;;18.50;;
31112;SDS011;17763;48.730;9.136;2023-02-15T11:00:26;32.45;;;19.40;;
31112;SDS011;17763;48.730;9.136;2023-02-15T11:08:29;31.40;;;19.73;;
31112;SDS011;17763;48.730;9.136;2023-02-15T11:11:00;34.65;;;20.73;;
31112;SDS011;17763;48.730;9.136;2023-02-15T11:13:39;25.52;;;18.15;;
31112;SDS011;17763;48.730;9.136;2023-02-15T11:16:11;25.13;;;18.90;;
31112;SDS011;17763;48.730;9.136;2023-02-15T11:18:43;30.92;;;18.58;;
31112;SDS011;17763;48.730;9.136;2023-02-15T11:21:17;24.85;;;17.30;;
31112;SDS011;17763;48.730;9.136;2023-02-15T11:31:43;26.17;;;16.40;;
31112;SDS011;17763;48.730;9.136;2023-02-15T11:36:52;25.02;;;16.05;;
31112;SDS011;17763;48.730;9.136;2023-02-15T11:39:19;32.88;;;17.45;;
31112;SDS011;17763;48.730;9.136;2023-02-15T11:41:52;24.63;;;16.80;;
31112;SDS011;17763;48.730;9.136;2023-02-15T11:44:23;32.03;;;18.65;;
31112;SDS011;17763;48.730;9.136;2023-02-15T11:46:53;30.40;;;19.33;;
31112;SDS011;17763;48.730;9.136;2023-02-15T11:49:23;32.20;;;21.30;;
31112;SDS011;17763;48.730;9.136;2023-02-15T11:51:56;33.88;;;23.10;;
31112;SDS011;17763;48.730;9.136;2023-02-15T11:54:26;39.22;;;23.48;;
31112;SDS011;17763;48.730;9.136;2023-02-15T11:56:59;33.63;;;22.52;;
31112;SDS011;17763;48.730;9.136;2023-02-15T11:59:40;32.35;;;21.83;;
31112;SDS011;17763;48.730;9.136;2023-02-15T12:02:19;32.72;;;23.20;;
31112;SDS011;17763;48.730;9.136;2023-02-15T12:04:48;35.28;;;23.02;;
31112;SDS011;17763;48.730;9.136;2023-02-15T12:07:24;29.92;;;22.05;;
31112;SDS011;17763;48.730;9.136;2023-02-15T12:12:44;33.80;;;22.48;;
31112;SDS011;17763;48.730;9.136;2023-02-15T12:15:11;36.35;;;22.90;;
31112;SDS011;17763;48.730;9.136;2023-02-15T12:17:52;35.67;;;23.63;;
31112;SDS011;17763;48.730;9.136;2023-02-15T12:20:28;30.23;;;22.60;;
31112;SDS011;17763;48.730;9.136;2023-02-15T12:22:59;33.15;;;22.50;;
31112;SDS011;17763;48.730;9.136;2023-02-15T12:28:35;33.40;;;21.83;;
31112;SDS011;17763;48.730;9.136;2023-02-15T12:31:49;30.00;;;22.00;;
31112;SDS011;17763;48.730;9.136;2023-02-15T12:34:02;32.08;;;22.05;;
31112;SDS011;17763;48.730;9.136;2023-02-15T12:36:45;32.72;;;20.83;;
31112;SDS011;17763;48.730;9.136;2023-02-15T12:39:20;33.25;;;23.38;;
31112;SDS011;17763;48.730;9.136;2023-02-15T12:44:34;37.33;;;23.90;;
31112;SDS011;17763;48.730;9.136;2023-02-15T12:47:03;28.77;;;22.30;;
31112;SDS011;17763;48.730;9.136;2023-02-15T12:49:41;34.45;;;22.58;;
31112;SDS011;17763;48.730;9.136;2023-02-15T12:54:45;38.38;;;22.50;;
31112;SDS011;17763;48.730;9.136;2023-02-15T12:59:54;30.08;;;22.85;;
31112;SDS011;17763;48.730;9.136;2023-02-15T13:02:25;32.90;;;22.58;;
31112;SDS011;17763;48.730;9.136;2023-02-15T13:05:04;32.13;;;22.48;;
31112;SDS011;17763;48.730;9.136;2023-02-15T13:07:58;33.45;;;22.92;;
31112;SDS011;17763;48.730;9.136;2023-02-15T13:10:35;33.75;;;21.95;;
31112;SDS011;17763;48.730;9.136;2023-02-15T13:13:05;28.95;;;21.70;;
31112;SDS011;17763;48.730;9.136;2023-02-15T13:15:44;33.80;;;22.37;;
31112;SDS011;17763;48.730;9.136;2023-02-15T13:18:17;30.88;;;21.92;;
31112;SDS011;17763;48.730;9.136;2023-02-15T13:21:00;35.65;;;21.65;;
31112;SDS011;17763;48.730;9.136;2023-02-15T13:23:38;32.67;;;22.00;;
31112;SDS011;17763;48.730;9.136;2023-02-15T13:26:09;33.65;;;21.10;;
31112;SDS011;17763;48.730;9.136;2023-02-15T13:28:46;32.22;;;22.70;;
31112;SDS011;17763;48.730;9.136;2023-02-15T13:31:22;33.33;;;23.27;;
31112;SDS011;17763;48.730;9.136;2023-02-15T13:33:53;30.75;;;22.80;;
31112;SDS011;17763;48.730;9.136;2023-02-15T13:36:29;31.45;;;22.10;;
31112;SDS011;17763;48.730;9.136;2023-02-15T13:39:12;34.00;;;22.58;;
31112;SDS011;17763;48.730;9.136;2023-02-15T13:47:53;32.42;;;23.77;;
31112;SDS011;17763;48.730;9.136;2023-02-15T13:52:58;32.30;;;23.30;;
31112;SDS011;17763;48.730;9.136;2023-02-15T14:07:33;32.22;;;21.55;;
31112;SDS011;17763;48.730;9.136;2023-02-15T14:10:23;32.50;;;22.08;;
31112;SDS011;17763;48.730;9.136;2023-02-15T14:29:39;28.50;;;21.17;;
31112;SDS011;17763;48.730;9.136;2023-02-15T14:35:14;29.58;;;21.60;;
31112;SDS011;17763;48.730;9.136;2023-02-15T14:40:57;34.20;;;22.17;;
31112;SDS011;17763;48.730;9.136;2023-02-15T14:46:28;33.00;;;21.63;;
31112;SDS011;17763;48.730;9.136;2023-02-15T14:49:08;35.53;;;23.75;;
31112;SDS011;17763;48.730;9.136;2023-02-15T14:54:54;33.60;;;22.25;;
31112;SDS011;17763;48.730;9.136;2023-02-15T14:59:37;30.38;;;22.33;;
31112;SDS011;17763;48.730;9.136;2023-02-15T15:02:39;30.48;;;22.65;;
31112;SDS011;17763;48.730;9.136;2023-02-15T15:08:22;32.50;;;22.02;;
31112;SDS011;17763;48.730;9.136;2023-02-15T15:11:36;36.15;;;23.67;;
31112;SDS011;17763;48.730;9.136;2023-02-15T15:13:57;34.45;;;21.55;;
31112;SDS011;17763;48.730;9.136;2023-02-15T15:19:01;30.08;;;22.20;;
31112;SDS011;17763;48.730;9.136;2023-02-15T15:37:56;32.45;;;21.90;;
31112;SDS011;17763;48.730;9.136;2023-02-15T15:40:42;29.38;;;20.38;;
31112;SDS011;17763;48.730;9.136;2023-02-15T15:49:09;32.75;;;22.13;;
31112;SDS011;17763;48.730;9.136;2023-02-15T15:54:11;34.85;;;22.35;;
31112;SDS011;17763;48.730;9.136;2023-02-15T15:56:52;33.30;;;22.17;;
31112;SDS011;17763;48.730;9.136;2023-02-15T15:59:30;30.60;;;20.27;;
31112;SDS011;17763;48.730;9.136;2023-02-15T16:02:04;34.63;;;21.48;;
31112;SDS011;17763;48.730;9.136;2023-02-15T16:04:40;35.08;;;21.58;;
31112;SDS011;17763;48.730;9.136;2023-02-15T16:07:13;30.50;;;19.70;;
31112;SDS011;17763;48.730;9.136;2023-02-15T16:09:59;27.05;;;19.85;;
31112;SDS011;17763;48.730;9.136;2023-02-15T16:12:30;29.65;;;19.30;;
31112;SDS011;17763;48.730;9.136;2023-02-15T16:15:00;29.45;;;20.70;;
31112;SDS011;17763;48.730;9.136;2023-02-15T16:17:30;30.35;;;19.73;;
31112;SDS011;17763;48.730;9.136;2023-02-15T16:20:00;29.08;;;20.25;;
31112;SDS011;17763;48.730;9.136;2023-02-15T16:22:31;27.77;;;20.48;;
31112;SDS011;17763;48.730;9.136;2023-02-15T16:25:14;27.75;;;19.95;;
31112;SDS011;17763;48.730;9.136;2023-02-15T16:28:06;26.83;;;19.95;;
31112;SDS011;17763;48.730;9.136;2023-02-15T16:30:34;28.27;;;18.88;;
31112;SDS011;17763;48.730;9.136;2023-02-15T16:35:40;28.38;;;19.05;;
31112;SDS011;17763;48.730;9.136;2023-02-15T16:38:18;32.72;;;20.40;;
31112;SDS011;17763;48.730;9.136;2023-02-15T16:41:04;24.85;;;17.80;;
31112;SDS011;17763;48.730;9.136;2023-02-15T16:43:30;25.33;;;18.05;;
31112;SDS011;17763;48.730;9.136;2023-02-15T16:46:07;25.75;;;19.35;;
31112;SDS011;17763;48.730;9.136;2023-02-15T16:48:39;29.45;;;19.60;;
31112;SDS011;17763;48.730;9.136;2023-02-15T16:51:10;24.13;;;18.13;;
31112;SDS011;17763;48.730;9.136;2023-02-15T16:53:47;28.05;;;19.17;;
31112;SDS011;17763;48.730;9.136;2023-02-15T16:56:14;28.83;;;18.95;;
31112;SDS011;17763;48.730;9.136;2023-02-15T17:01:08;29.55;;;18.30;;
31112;SDS011;17763;48.730;9.136;2023-02-15T17:03:37;27.85;;;19.73;;
31112;SDS011;17763;48.730;9.136;2023-02-15T17:06:16;31.10;;;20.23;;
31112;SDS011;17763;48.730;9.136;2023-02-15T17:08:48;30.85;;;19.40;;
31112;SDS011;17763;48.730;9.136;2023-02-15T17:11:15;28.30;;;19.83;;
31112;SDS011;17763;48.730;9.136;2023-02-15T17:17:13;38.50;;;22.00;;
31112;SDS011;17763;48.730;9.136;2023-02-15T17:19:33;31.95;;;20.15;;
31112;SDS011;17763;48.730;9.136;2023-02-15T17:22:16;35.95;;;23.27;;
31112;SDS011;17763;48.730;9.136;2023-02-15T17:24:58;30.52;;;20.08;;
31112;SDS011;17763;48.730;9.136;2023-02-15T17:27:28;31.52;;;21.33;;
31112;SDS011;17763;48.730;9.136;2023-02-15T17:30:03;31.88;;;20.60;;
31112;SDS011;17763;48.730;9.136;2023-02-15T17:32:43;37.05;;;22.15;;
31112;SDS011;17763;48.730;9.136;2023-02-15T17:35:22;32.53;;;21.25;;
31112;SDS011;17763;48.730;9.136;2023-02-15T17:38:05;33.53;;;22.45;;
31112;SDS011;17763;48.730;9.136;2023-02-15T17:40:41;29.58;;;21.77;;
31112;SDS011;17763;48.730;9.136;2023-02-15T17:43:07;36.15;;;24.67;;
31112;SDS011;17763;48.730;9.136;2023-02-15T17:45:44;31.92;;;22.52;;
31112;SDS011;17763;48.730;9.136;2023-02-15T17:48:18;36.50;;;24.58;;
31112;SDS011;17763;48.730;9.136;2023-02-15T17:50:58;34.15;;;23.30;;
31112;SDS011;17763;48.730;9.136;2023-02-15T17:53:28;34.05;;;22.52;;
31112;SDS011;17763;48.730;9.136;2023-02-15T17:55:54;30.63;;;21.13;;
31112;SDS011;17763;48.730;9.136;2023-02-15T17:58:19;33.05;;;22.38;;
31112;SDS011;17763;48.730;9.136;2023-02-15T18:00:55;30.25;;;21.25;;
31112;SDS011;17763;48.730;9.136;2023-02-15T18:03:50;30.10;;;21.42;;
31112;SDS011;17763;48.730;9.136;2023-02-15T18:06:36;31.48;;;22.25;;
31112;SDS011;17763;48.730;9.136;2023-02-15T18:09:22;33.42;;;22.02;;
31112;SDS011;17763;48.730;9.136;2023-02-15T18:14:47;35.70;;;22.25;;
31112;SDS011;17763;48.730;9.136;2023-02-15T18:17:13;36.20;;;22.38;;
31112;SDS011;17763;48.730;9.136;2023-02-15T18:19:40;29.58;;;22.00;;
31112;SDS011;17763;48.730;9.136;2023-02-15T18:22:11;33.15;;;21.70;;
31112;SDS011;17763;48.730;9.136;2023-02-15T18:24:38;34.00;;;21.55;;
31112;SDS011;17763;48.730;9.136;2023-02-15T18:27:09;37.35;;;21.10;;
31112;SDS011;17763;48.730;9.136;2023-02-15T18:29:36;32.83;;;21.88;;
31112;SDS011;17763;48.730;9.136;2023-02-15T18:32:02;33.00;;;22.17;;